sensor_id;sensor_type;location;lat;lon;timestamp;temperature;humidity
17795;DHT22;9021;50.882;4.326;2022-09-17T00:02:00;12.90;99.90
17795;DHT22;9021;50.882;4.326;2022-09-17T00:04:27;12.90;99.90
17795;DHT22;9021;50.882;4.326;2022-09-17T00:06:53;12.90;99.90
17795;DHT22;9021;50.882;4.326;2022-09-17T00:09:18;13.00;99.90
17795;DHT22;9021;50.882;4.326;2022-09-17T00:11:44;13.00;99.90
17795;DHT22;9021;50.882;4.326;2022-09-17T00:14:14;13.10;99.90
17795;DHT22;9021;50.882;4.326;2022-09-17T00:16:42;13.10;99.90
17795;DHT22;9021;50.882;4.326;2022-09-17T00:19:14;13.00;99.90
17795;DHT22;9021;50.882;4.326;2022-09-17T00:21:41;12.90;99.90
17795;DHT22;9021;50.882;4.326;2022-09-17T00:24:09;13.00;99.90
17795;DHT22;9021;50.882;4.326;2022-09-17T00:26:35;13.00;99.90
17795;DHT22;9021;50.882;4.326;2022-09-17T00:29:01;13.00;99.90
17795;DHT22;9021;50.882;4.326;2022-09-17T00:31:28;13.00;99.90
17795;DHT22;9021;50.882;4.326;2022-09-17T00:33:54;12.90;99.90
17795;DHT22;9021;50.882;4.326;2022-09-17T00:36:21;12.90;99.90
17795;DHT22;9021;50.882;4.326;2022-09-17T00:38:55;13.00;99.90
17795;DHT22;9021;50.882;4.326;2022-09-17T00:41:22;12.90;99.90
17795;DHT22;9021;50.882;4.326;2022-09-17T00:43:53;12.90;99.90
17795;DHT22;9021;50.882;4.326;2022-09-17T00:46:35;12.90;99.90
17795;DHT22;9021;50.882;4.326;2022-09-17T00:49:22;12.80;99.90
17795;DHT22;9021;50.882;4.326;2022-09-17T00:51:56;12.80;99.90
17795;DHT22;9021;50.882;4.326;2022-09-17T00:54:24;12.80;99.90
17795;DHT22;9021;50.882;4.326;2022-09-17T00:56:50;12.90;99.90
17795;DHT22;9021;50.882;4.326;2022-09-17T00:59:16;12.80;99.90
17795;DHT22;9021;50.882;4.326;2022-09-17T01:01:42;12.80;99.90
17795;DHT22;9021;50.882;4.326;2022-09-17T01:04:18;12.80;99.90
17795;DHT22;9021;50.882;4.326;2022-09-17T01:15:56;12.80;99.90
17795;DHT22;9021;50.882;4.326;2022-09-17T01:21:26;12.90;99.90
17795;DHT22;9021;50.882;4.326;2022-09-17T01:29:54;13.00;99.90
17795;DHT22;9021;50.882;4.326;2022-09-17T01:32:44;13.00;99.90
17795;DHT22;9021;50.882;4.326;2022-09-17T01:35:26;13.00;99.90
17795;DHT22;9021;50.882;4.326;2022-09-17T01:38:03;12.90;99.90
17795;DHT22;9021;50.882;4.326;2022-09-17T01:40:38;13.00;99.90
17795;DHT22;9021;50.882;4.326;2022-09-17T01:46:32;12.90;99.90
17795;DHT22;9021;50.882;4.326;2022-09-17T01:49:02;13.00;99.90
17795;DHT22;9021;50.882;4.326;2022-09-17T01:51:35;13.10;99.90
17795;DHT22;9021;50.882;4.326;2022-09-17T02:00:11;13.20;99.90
17795;DHT22;9021;50.882;4.326;2022-09-17T02:03:01;13.30;99.90
17795;DHT22;9021;50.882;4.326;2022-09-17T02:08:07;13.20;99.90
17795;DHT22;9021;50.882;4.326;2022-09-17T02:10:39;13.30;99.90
17795;DHT22;9021;50.882;4.326;2022-09-17T02:13:15;13.20;99.90
17795;DHT22;9021;50.882;4.326;2022-09-17T02:15:46;13.20;99.90
17795;DHT22;9021;50.882;4.326;2022-09-17T02:18:36;13.30;99.90
17795;DHT22;9021;50.882;4.326;2022-09-17T02:21:10;13.30;99.90
17795;DHT22;9021;50.882;4.326;2022-09-17T02:23:51;13.40;99.90
17795;DHT22;9021;50.882;4.326;2022-09-17T02:26:19;13.30;99.90
17795;DHT22;9021;50.882;4.326;2022-09-17T02:28:52;13.30;99.90
17795;DHT22;9021;50.882;4.326;2022-09-17T02:31:19;13.20;99.90
17795;DHT22;9021;50.882;4.326;2022-09-17T02:33:48;13.20;99.90
17795;DHT22;9021;50.882;4.326;2022-09-17T02:36:15;13.00;99.90
17795;DHT22;9021;50.882;4.326;2022-09-17T02:38:43;13.20;99.90
17795;DHT22;9021;50.882;4.326;2022-09-17T02:41:21;13.10;99.90
17795;DHT22;9021;50.882;4.326;2022-09-17T02:44:20;13.30;99.90
17795;DHT22;9021;50.882;4.326;2022-09-17T02:58:31;13.10;99.90
17795;DHT22;9021;50.882;4.326;2022-09-17T03:01:04;13.20;99.90
17795;DHT22;9021;50.882;4.326;2022-09-17T03:03:38;13.10;99.90
17795;DHT22;9021;50.882;4.326;2022-09-17T03:06:04;13.20;99.90
17795;DHT22;9021;50.882;4.326;2022-09-17T03:08:40;13.10;99.90
17795;DHT22;9021;50.882;4.326;2022-09-17T03:11:06;13.10;99.90
17795;DHT22;9021;50.882;4.326;2022-09-17T03:13:34;12.90;99.90
17795;DHT22;9021;50.882;4.326;2022-09-17T03:16:01;12.70;99.90
17795;DHT22;9021;50.882;4.326;2022-09-17T03:18:27;12.70;99.90
17795;DHT22;9021;50.882;4.326;2022-09-17T03:20:53;12.70;99.90
17795;DHT22;9021;50.882;4.326;2022-09-17T03:23:18;12.70;99.90
17795;DHT22;9021;50.882;4.326;2022-09-17T03:25:45;12.70;99.90
17795;DHT22;9021;50.882;4.326;2022-09-17T03:28:10;12.70;99.90
17795;DHT22;9021;50.882;4.326;2022-09-17T03:30:36;12.70;99.90
17795;DHT22;9021;50.882;4.326;2022-09-17T03:33:02;12.70;99.90
17795;DHT22;9021;50.882;4.326;2022-09-17T03:35:27;12.60;99.90
17795;DHT22;9021;50.882;4.326;2022-09-17T03:37:53;12.60;99.90
17795;DHT22;9021;50.882;4.326;2022-09-17T03:40:18;12.50;99.90
17795;DHT22;9021;50.882;4.326;2022-09-17T03:42:44;12.50;99.90
17795;DHT22;9021;50.882;4.326;2022-09-17T03:45:10;12.60;99.90
17795;DHT22;9021;50.882;4.326;2022-09-17T03:47:36;12.50;99.90
17795;DHT22;9021;50.882;4.326;2022-09-17T03:50:03;12.40;99.90
17795;DHT22;9021;50.882;4.326;2022-09-17T03:52:29;12.40;99.90
17795;DHT22;9021;50.882;4.326;2022-09-17T03:54:54;12.30;99.90
17795;DHT22;9021;50.882;4.326;2022-09-17T03:57:20;12.50;99.90
17795;DHT22;9021;50.882;4.326;2022-09-17T03:59:47;12.40;99.90
17795;DHT22;9021;50.882;4.326;2022-09-17T04:02:13;12.40;99.90
17795;DHT22;9021;50.882;4.326;2022-09-17T04:04:38;12.50;99.90
17795;DHT22;9021;50.882;4.326;2022-09-17T04:07:04;12.50;99.90
17795;DHT22;9021;50.882;4.326;2022-09-17T04:09:30;12.40;99.90
17795;DHT22;9021;50.882;4.326;2022-09-17T04:11:56;12.40;99.90
17795;DHT22;9021;50.882;4.326;2022-09-17T04:14:21;12.40;99.90
17795;DHT22;9021;50.882;4.326;2022-09-17T04:16:47;12.30;99.90
17795;DHT22;9021;50.882;4.326;2022-09-17T04:19:12;12.40;99.90
17795;DHT22;9021;50.882;4.326;2022-09-17T04:21:38;12.40;99.90
17795;DHT22;9021;50.882;4.326;2022-09-17T04:24:04;12.40;99.90
17795;DHT22;9021;50.882;4.326;2022-09-17T04:26:29;12.30;99.90
17795;DHT22;9021;50.882;4.326;2022-09-17T04:28:55;12.40;99.90
17795;DHT22;9021;50.882;4.326;2022-09-17T04:31:20;12.30;99.90
17795;DHT22;9021;50.882;4.326;2022-09-17T04:33:49;12.30;99.90
17795;DHT22;9021;50.882;4.326;2022-09-17T04:36:15;12.30;99.90
17795;DHT22;9021;50.882;4.326;2022-09-17T04:38:41;12.30;99.90
17795;DHT22;9021;50.882;4.326;2022-09-17T04:41:07;12.20;99.90
17795;DHT22;9021;50.882;4.326;2022-09-17T04:43:33;12.00;99.90
17795;DHT22;9021;50.882;4.326;2022-09-17T04:45:58;12.20;99.90
17795;DHT22;9021;50.882;4.326;2022-09-17T04:48:24;12.10;99.90
17795;DHT22;9021;50.882;4.326;2022-09-17T04:50:49;12.30;99.90
17795;DHT22;9021;50.882;4.326;2022-09-17T04:53:15;12.20;99.90
17795;DHT22;9021;50.882;4.326;2022-09-17T04:55:42;12.30;99.90
17795;DHT22;9021;50.882;4.326;2022-09-17T04:58:09;12.30;99.90
17795;DHT22;9021;50.882;4.326;2022-09-17T05:00:35;12.40;99.90
17795;DHT22;9021;50.882;4.326;2022-09-17T05:03:01;12.30;99.90
17795;DHT22;9021;50.882;4.326;2022-09-17T05:05:27;12.30;99.90
17795;DHT22;9021;50.882;4.326;2022-09-17T05:07:52;12.30;99.90
17795;DHT22;9021;50.882;4.326;2022-09-17T05:10:20;12.30;99.90
17795;DHT22;9021;50.882;4.326;2022-09-17T05:12:53;12.10;99.90
17795;DHT22;9021;50.882;4.326;2022-09-17T05:15:20;12.10;99.90
17795;DHT22;9021;50.882;4.326;2022-09-17T05:17:45;12.10;99.90
17795;DHT22;9021;50.882;4.326;2022-09-17T05:20:12;12.10;99.90
17795;DHT22;9021;50.882;4.326;2022-09-17T05:22:44;12.00;99.90
17795;DHT22;9021;50.882;4.326;2022-09-17T05:25:11;12.10;99.90
17795;DHT22;9021;50.882;4.326;2022-09-17T05:27:37;12.10;99.90
17795;DHT22;9021;50.882;4.326;2022-09-17T05:30:03;12.20;99.90
17795;DHT22;9021;50.882;4.326;2022-09-17T05:32:29;12.20;99.90
17795;DHT22;9021;50.882;4.326;2022-09-17T05:34:55;12.20;99.90
17795;DHT22;9021;50.882;4.326;2022-09-17T05:37:21;12.20;99.90
17795;DHT22;9021;50.882;4.326;2022-09-17T05:39:46;12.20;99.90
17795;DHT22;9021;50.882;4.326;2022-09-17T05:42:12;12.30;99.90
17795;DHT22;9021;50.882;4.326;2022-09-17T05:44:38;12.30;99.90
17795;DHT22;9021;50.882;4.326;2022-09-17T05:47:03;12.40;99.90
17795;DHT22;9021;50.882;4.326;2022-09-17T05:49:29;12.40;99.90
17795;DHT22;9021;50.882;4.326;2022-09-17T05:51:55;12.40;99.90
17795;DHT22;9021;50.882;4.326;2022-09-17T05:54:20;12.40;99.90
17795;DHT22;9021;50.882;4.326;2022-09-17T05:56:46;12.30;99.90
17795;DHT22;9021;50.882;4.326;2022-09-17T05:59:12;12.40;99.90
17795;DHT22;9021;50.882;4.326;2022-09-17T06:01:39;12.50;99.90
17795;DHT22;9021;50.882;4.326;2022-09-17T06:04:04;12.60;99.90
17795;DHT22;9021;50.882;4.326;2022-09-17T06:06:30;12.60;99.90
17795;DHT22;9021;50.882;4.326;2022-09-17T06:08:58;12.70;99.90
17795;DHT22;9021;50.882;4.326;2022-09-17T06:11:24;12.70;99.90
17795;DHT22;9021;50.882;4.326;2022-09-17T06:13:54;12.80;99.90
17795;DHT22;9021;50.882;4.326;2022-09-17T06:16:21;12.90;99.90
17795;DHT22;9021;50.882;4.326;2022-09-17T06:18:46;12.90;99.90
17795;DHT22;9021;50.882;4.326;2022-09-17T06:21:14;12.80;99.90
17795;DHT22;9021;50.882;4.326;2022-09-17T06:23:40;12.80;99.90
17795;DHT22;9021;50.882;4.326;2022-09-17T06:26:08;12.80;99.90
17795;DHT22;9021;50.882;4.326;2022-09-17T06:28:33;12.80;99.90
17795;DHT22;9021;50.882;4.326;2022-09-17T06:31:04;12.90;99.90
17795;DHT22;9021;50.882;4.326;2022-09-17T06:33:30;12.80;99.90
17795;DHT22;9021;50.882;4.326;2022-09-17T06:35:58;12.90;99.90
17795;DHT22;9021;50.882;4.326;2022-09-17T06:38:26;13.00;99.90
17795;DHT22;9021;50.882;4.326;2022-09-17T06:40:52;13.00;99.90
17795;DHT22;9021;50.882;4.326;2022-09-17T06:43:18;13.20;99.90
17795;DHT22;9021;50.882;4.326;2022-09-17T06:45:49;13.20;99.90
17795;DHT22;9021;50.882;4.326;2022-09-17T06:48:15;13.10;99.90
17795;DHT22;9021;50.882;4.326;2022-09-17T06:50:41;13.00;99.90
17795;DHT22;9021;50.882;4.326;2022-09-17T06:53:08;13.00;99.90
17795;DHT22;9021;50.882;4.326;2022-09-17T06:55:34;13.00;99.90
17795;DHT22;9021;50.882;4.326;2022-09-17T06:57:59;13.10;99.90
17795;DHT22;9021;50.882;4.326;2022-09-17T07:00:25;13.10;99.90
17795;DHT22;9021;50.882;4.326;2022-09-17T07:02:58;13.20;99.90
17795;DHT22;9021;50.882;4.326;2022-09-17T07:05:24;13.30;99.90
17795;DHT22;9021;50.882;4.326;2022-09-17T07:07:51;13.50;99.90
17795;DHT22;9021;50.882;4.326;2022-09-17T07:10:16;13.60;99.90
17795;DHT22;9021;50.882;4.326;2022-09-17T07:12:42;13.70;99.90
17795;DHT22;9021;50.882;4.326;2022-09-17T07:15:08;13.80;99.90
17795;DHT22;9021;50.882;4.326;2022-09-17T07:17:38;13.80;99.90
17795;DHT22;9021;50.882;4.326;2022-09-17T07:20:06;13.70;99.90
17795;DHT22;9021;50.882;4.326;2022-09-17T07:22:32;13.70;99.90
17795;DHT22;9021;50.882;4.326;2022-09-17T07:24:57;13.70;99.90
17795;DHT22;9021;50.882;4.326;2022-09-17T07:27:24;13.70;99.90
17795;DHT22;9021;50.882;4.326;2022-09-17T07:29:51;13.70;99.90
17795;DHT22;9021;50.882;4.326;2022-09-17T07:32:16;13.70;99.90
17795;DHT22;9021;50.882;4.326;2022-09-17T07:34:42;13.70;99.90
17795;DHT22;9021;50.882;4.326;2022-09-17T07:37:07;13.70;99.90
17795;DHT22;9021;50.882;4.326;2022-09-17T07:39:33;13.60;99.90
17795;DHT22;9021;50.882;4.326;2022-09-17T07:41:59;13.70;99.90
17795;DHT22;9021;50.882;4.326;2022-09-17T07:44:24;13.80;99.90
17795;DHT22;9021;50.882;4.326;2022-09-17T07:46:50;13.90;99.90
17795;DHT22;9021;50.882;4.326;2022-09-17T07:49:16;14.00;99.90
17795;DHT22;9021;50.882;4.326;2022-09-17T07:51:41;14.40;99.90
17795;DHT22;9021;50.882;4.326;2022-09-17T07:54:07;14.60;99.90
17795;DHT22;9021;50.882;4.326;2022-09-17T07:56:32;14.80;99.90
17795;DHT22;9021;50.882;4.326;2022-09-17T07:58:59;15.30;99.90
17795;DHT22;9021;50.882;4.326;2022-09-17T08:01:26;16.10;99.90
17795;DHT22;9021;50.882;4.326;2022-09-17T08:03:53;16.80;99.90
17795;DHT22;9021;50.882;4.326;2022-09-17T08:06:21;17.10;99.90
17795;DHT22;9021;50.882;4.326;2022-09-17T08:08:47;16.80;99.90
17795;DHT22;9021;50.882;4.326;2022-09-17T08:11:18;16.80;99.90
17795;DHT22;9021;50.882;4.326;2022-09-17T08:13:48;16.60;99.90
17795;DHT22;9021;50.882;4.326;2022-09-17T08:16:14;16.50;99.90
17795;DHT22;9021;50.882;4.326;2022-09-17T08:18:44;16.40;99.90
17795;DHT22;9021;50.882;4.326;2022-09-17T08:21:11;16.20;99.90
17795;DHT22;9021;50.882;4.326;2022-09-17T08:23:39;16.10;99.90
17795;DHT22;9021;50.882;4.326;2022-09-17T08:26:06;16.10;99.90
17795;DHT22;9021;50.882;4.326;2022-09-17T08:28:36;16.20;99.90
17795;DHT22;9021;50.882;4.326;2022-09-17T08:31:04;16.20;99.90
17795;DHT22;9021;50.882;4.326;2022-09-17T08:33:35;16.20;99.90
17795;DHT22;9021;50.882;4.326;2022-09-17T08:36:01;16.30;99.90
17795;DHT22;9021;50.882;4.326;2022-09-17T08:38:29;16.50;99.90
17795;DHT22;9021;50.882;4.326;2022-09-17T08:43:20;16.90;99.90
17795;DHT22;9021;50.882;4.326;2022-09-17T08:45:53;16.80;99.90
17795;DHT22;9021;50.882;4.326;2022-09-17T08:48:19;16.90;99.90
17795;DHT22;9021;50.882;4.326;2022-09-17T08:50:48;16.80;99.90
17795;DHT22;9021;50.882;4.326;2022-09-17T08:56:20;16.60;99.90
17795;DHT22;9021;50.882;4.326;2022-09-17T08:58:58;16.60;99.90
17795;DHT22;9021;50.882;4.326;2022-09-17T09:01:37;16.70;99.90
17795;DHT22;9021;50.882;4.326;2022-09-17T09:06:57;16.90;99.90
17795;DHT22;9021;50.882;4.326;2022-09-17T09:09:29;16.80;99.90
17795;DHT22;9021;50.882;4.326;2022-09-17T09:12:23;16.60;99.90
17795;DHT22;9021;50.882;4.326;2022-09-17T09:14:58;16.40;99.90
17795;DHT22;9021;50.882;4.326;2022-09-17T09:17:48;16.30;99.90
17795;DHT22;9021;50.882;4.326;2022-09-17T09:20:20;16.20;99.90
17795;DHT22;9021;50.882;4.326;2022-09-17T09:22:49;16.10;99.90
17795;DHT22;9021;50.882;4.326;2022-09-17T09:28:16;15.80;99.90
17795;DHT22;9021;50.882;4.326;2022-09-17T09:33:14;15.60;99.90
17795;DHT22;9021;50.882;4.326;2022-09-17T09:35:43;15.50;99.90
17795;DHT22;9021;50.882;4.326;2022-09-17T09:40:53;15.40;99.90
17795;DHT22;9021;50.882;4.326;2022-09-17T09:43:41;15.40;99.90
17795;DHT22;9021;50.882;4.326;2022-09-17T09:46:24;15.40;99.90
17795;DHT22;9021;50.882;4.326;2022-09-17T09:57:21;16.40;99.90
17795;DHT22;9021;50.882;4.326;2022-09-17T09:59:48;16.80;99.90
17795;DHT22;9021;50.882;4.326;2022-09-17T10:02:14;16.90;99.90
17795;DHT22;9021;50.882;4.326;2022-09-17T10:04:39;17.00;99.90
17795;DHT22;9021;50.882;4.326;2022-09-17T10:07:07;17.10;99.90
17795;DHT22;9021;50.882;4.326;2022-09-17T10:09:35;17.20;99.90
17795;DHT22;9021;50.882;4.326;2022-09-17T10:14:35;17.30;99.90
17795;DHT22;9021;50.882;4.326;2022-09-17T10:17:23;17.10;99.90
17795;DHT22;9021;50.882;4.326;2022-09-17T10:24:59;16.70;99.90
17795;DHT22;9021;50.882;4.326;2022-09-17T10:27:26;16.70;99.90
17795;DHT22;9021;50.882;4.326;2022-09-17T10:32:28;16.60;99.90
17795;DHT22;9021;50.882;4.326;2022-09-17T10:37:46;16.80;99.90
17795;DHT22;9021;50.882;4.326;2022-09-17T10:42:50;16.60;99.90
17795;DHT22;9021;50.882;4.326;2022-09-17T10:45:30;16.80;99.90
17795;DHT22;9021;50.882;4.326;2022-09-17T10:47:58;17.00;99.90
17795;DHT22;9021;50.882;4.326;2022-09-17T10:50:34;17.10;99.90
17795;DHT22;9021;50.882;4.326;2022-09-17T10:53:05;17.20;99.90
17795;DHT22;9021;50.882;4.326;2022-09-17T11:01:42;16.90;99.90
17795;DHT22;9021;50.882;4.326;2022-09-17T11:09:58;16.90;99.90
17795;DHT22;9021;50.882;4.326;2022-09-17T11:18:31;17.50;99.90
17795;DHT22;9021;50.882;4.326;2022-09-17T11:30:03;17.30;99.90
17795;DHT22;9021;50.882;4.326;2022-09-17T11:35:10;17.20;99.90
17795;DHT22;9021;50.882;4.326;2022-09-17T11:42:40;16.90;99.90
17795;DHT22;9021;50.882;4.326;2022-09-17T11:45:24;16.70;99.90
17795;DHT22;9021;50.882;4.326;2022-09-17T11:48:14;16.60;99.90
17795;DHT22;9021;50.882;4.326;2022-09-17T11:50:49;16.50;99.90
17795;DHT22;9021;50.882;4.326;2022-09-17T11:55:52;17.00;99.90
17795;DHT22;9021;50.882;4.326;2022-09-17T11:58:28;17.40;99.90
17795;DHT22;9021;50.882;4.326;2022-09-17T12:01:04;18.30;99.90
17795;DHT22;9021;50.882;4.326;2022-09-17T12:03:35;19.70;99.90
17795;DHT22;9021;50.882;4.326;2022-09-17T12:06:12;20.40;99.90
17795;DHT22;9021;50.882;4.326;2022-09-17T12:08:46;20.90;99.90
17795;DHT22;9021;50.882;4.326;2022-09-17T12:11:22;21.10;99.90
17795;DHT22;9021;50.882;4.326;2022-09-17T12:13:54;21.10;99.90
17795;DHT22;9021;50.882;4.326;2022-09-17T12:16:34;20.80;99.90
17795;DHT22;9021;50.882;4.326;2022-09-17T12:19:08;20.90;99.70
17795;DHT22;9021;50.882;4.326;2022-09-17T12:32:31;23.50;96.40
17795;DHT22;9021;50.882;4.326;2022-09-17T12:43:03;19.60;98.80
17795;DHT22;9021;50.882;4.326;2022-09-17T12:59:31;17.60;99.90
17795;DHT22;9021;50.882;4.326;2022-09-17T13:05:44;17.00;99.90
17795;DHT22;9021;50.882;4.326;2022-09-17T13:08:24;16.60;99.90
17795;DHT22;9021;50.882;4.326;2022-09-17T13:14:22;16.00;99.90
17795;DHT22;9021;50.882;4.326;2022-09-17T13:17:06;15.70;99.90
17795;DHT22;9021;50.882;4.326;2022-09-17T13:22:19;16.10;99.90
17795;DHT22;9021;50.882;4.326;2022-09-17T13:24:47;16.20;99.90
17795;DHT22;9021;50.882;4.326;2022-09-17T13:27:25;16.30;99.90
17795;DHT22;9021;50.882;4.326;2022-09-17T13:37:44;16.40;99.90
17795;DHT22;9021;50.882;4.326;2022-09-17T13:40:25;16.90;99.90
17795;DHT22;9021;50.882;4.326;2022-09-17T13:43:12;17.40;99.90
17795;DHT22;9021;50.882;4.326;2022-09-17T13:48:28;18.30;99.90
17795;DHT22;9021;50.882;4.326;2022-09-17T13:50:55;18.60;99.90
17795;DHT22;9021;50.882;4.326;2022-09-17T13:53:24;18.90;99.90
17795;DHT22;9021;50.882;4.326;2022-09-17T14:16:45;20.10;99.90
17795;DHT22;9021;50.882;4.326;2022-09-17T14:19:46;19.70;99.90
17795;DHT22;9021;50.882;4.326;2022-09-17T14:22:13;19.30;99.90
17795;DHT22;9021;50.882;4.326;2022-09-17T14:30:10;18.70;99.90
17795;DHT22;9021;50.882;4.326;2022-09-17T14:32:44;18.30;99.90
17795;DHT22;9021;50.882;4.326;2022-09-17T14:35:16;17.60;99.90
17795;DHT22;9021;50.882;4.326;2022-09-17T14:37:48;17.20;99.90
17795;DHT22;9021;50.882;4.326;2022-09-17T14:40:17;16.90;99.90
17795;DHT22;9021;50.882;4.326;2022-09-17T14:42:45;16.70;99.90
17795;DHT22;9021;50.882;4.326;2022-09-17T14:45:35;16.30;99.90
17795;DHT22;9021;50.882;4.326;2022-09-17T14:48:27;16.10;99.90
17795;DHT22;9021;50.882;4.326;2022-09-17T14:53:38;16.10;99.90
17795;DHT22;9021;50.882;4.326;2022-09-17T14:56:04;16.10;99.90
17795;DHT22;9021;50.882;4.326;2022-09-17T14:58:33;16.20;99.90
17795;DHT22;9021;50.882;4.326;2022-09-17T15:00:59;16.30;99.90
17795;DHT22;9021;50.882;4.326;2022-09-17T15:03:25;16.40;99.90
17795;DHT22;9021;50.882;4.326;2022-09-17T15:05:51;16.50;99.90
17795;DHT22;9021;50.882;4.326;2022-09-17T15:08:20;16.50;99.90
17795;DHT22;9021;50.882;4.326;2022-09-17T15:13:28;16.60;99.90
17795;DHT22;9021;50.882;4.326;2022-09-17T15:16:03;16.60;99.90
17795;DHT22;9021;50.882;4.326;2022-09-17T15:18:39;16.50;99.90
17795;DHT22;9021;50.882;4.326;2022-09-17T15:21:18;16.40;99.90
17795;DHT22;9021;50.882;4.326;2022-09-17T15:23:46;16.30;99.90
17795;DHT22;9021;50.882;4.326;2022-09-17T15:26:16;16.40;99.90
17795;DHT22;9021;50.882;4.326;2022-09-17T15:28:45;16.40;99.90
17795;DHT22;9021;50.882;4.326;2022-09-17T15:31:17;16.40;99.90
17795;DHT22;9021;50.882;4.326;2022-09-17T15:33:44;16.40;99.90
17795;DHT22;9021;50.882;4.326;2022-09-17T15:36:23;16.50;99.90
17795;DHT22;9021;50.882;4.326;2022-09-17T15:38:51;16.50;99.90
17795;DHT22;9021;50.882;4.326;2022-09-17T15:43:48;16.30;99.90
17795;DHT22;9021;50.882;4.326;2022-09-17T15:46:22;16.30;99.90
17795;DHT22;9021;50.882;4.326;2022-09-17T15:48:49;16.30;99.90
17795;DHT22;9021;50.882;4.326;2022-09-17T15:51:35;16.30;99.90
17795;DHT22;9021;50.882;4.326;2022-09-17T15:54:03;16.20;99.90
17795;DHT22;9021;50.882;4.326;2022-09-17T15:56:32;16.20;99.90
17795;DHT22;9021;50.882;4.326;2022-09-17T15:59:04;16.10;99.90
17795;DHT22;9021;50.882;4.326;2022-09-17T16:04:29;16.10;99.90
17795;DHT22;9021;50.882;4.326;2022-09-17T16:12:14;15.90;99.90
17795;DHT22;9021;50.882;4.326;2022-09-17T16:14:44;15.90;99.90
17795;DHT22;9021;50.882;4.326;2022-09-17T16:17:27;15.80;99.90
17795;DHT22;9021;50.882;4.326;2022-09-17T16:19:56;15.90;99.90
17795;DHT22;9021;50.882;4.326;2022-09-17T16:22:22;15.90;99.90
17795;DHT22;9021;50.882;4.326;2022-09-17T16:24:47;16.00;99.90
17795;DHT22;9021;50.882;4.326;2022-09-17T16:27:23;16.10;99.90
17795;DHT22;9021;50.882;4.326;2022-09-17T16:29:50;16.10;99.90
17795;DHT22;9021;50.882;4.326;2022-09-17T16:32:16;16.10;99.90
17795;DHT22;9021;50.882;4.326;2022-09-17T16:34:42;16.00;99.90
17795;DHT22;9021;50.882;4.326;2022-09-17T16:37:09;16.00;99.90
17795;DHT22;9021;50.882;4.326;2022-09-17T16:39:35;16.10;99.90
17795;DHT22;9021;50.882;4.326;2022-09-17T16:42:01;16.00;99.90
17795;DHT22;9021;50.882;4.326;2022-09-17T16:44:26;16.00;99.90
17795;DHT22;9021;50.882;4.326;2022-09-17T16:46:52;15.90;99.90
17795;DHT22;9021;50.882;4.326;2022-09-17T16:49:18;15.90;99.90
17795;DHT22;9021;50.882;4.326;2022-09-17T16:51:43;15.80;99.90
17795;DHT22;9021;50.882;4.326;2022-09-17T16:54:09;15.70;99.90
17795;DHT22;9021;50.882;4.326;2022-09-17T16:56:34;15.60;99.90
17795;DHT22;9021;50.882;4.326;2022-09-17T16:59:00;15.70;99.90
17795;DHT22;9021;50.882;4.326;2022-09-17T17:01:26;15.60;99.90
17795;DHT22;9021;50.882;4.326;2022-09-17T17:03:51;15.60;99.90
17795;DHT22;9021;50.882;4.326;2022-09-17T17:06:19;15.50;99.90
17795;DHT22;9021;50.882;4.326;2022-09-17T17:08:45;15.50;99.90
17795;DHT22;9021;50.882;4.326;2022-09-17T17:11:11;15.60;99.90
17795;DHT22;9021;50.882;4.326;2022-09-17T17:13:37;15.40;99.90
17795;DHT22;9021;50.882;4.326;2022-09-17T17:16:08;15.40;99.90
17795;DHT22;9021;50.882;4.326;2022-09-17T17:18:33;15.30;99.90
17795;DHT22;9021;50.882;4.326;2022-09-17T17:21:06;15.20;99.90
17795;DHT22;9021;50.882;4.326;2022-09-17T17:23:33;15.30;99.90
17795;DHT22;9021;50.882;4.326;2022-09-17T17:25:58;15.20;99.90
17795;DHT22;9021;50.882;4.326;2022-09-17T17:28:24;15.20;99.90
17795;DHT22;9021;50.882;4.326;2022-09-17T17:30:50;15.10;99.90
17795;DHT22;9021;50.882;4.326;2022-09-17T17:33:16;15.10;99.90
17795;DHT22;9021;50.882;4.326;2022-09-17T17:35:41;15.10;99.90
17795;DHT22;9021;50.882;4.326;2022-09-17T17:38:07;15.10;99.90
17795;DHT22;9021;50.882;4.326;2022-09-17T17:40:33;15.10;99.90
17795;DHT22;9021;50.882;4.326;2022-09-17T17:42:59;15.10;99.90
17795;DHT22;9021;50.882;4.326;2022-09-17T17:45:25;15.10;99.90
17795;DHT22;9021;50.882;4.326;2022-09-17T17:47:51;15.10;99.90
17795;DHT22;9021;50.882;4.326;2022-09-17T17:50:17;15.00;99.90
17795;DHT22;9021;50.882;4.326;2022-09-17T17:52:42;15.10;99.90
17795;DHT22;9021;50.882;4.326;2022-09-17T17:55:12;15.00;99.90
17795;DHT22;9021;50.882;4.326;2022-09-17T17:57:38;15.20;99.90
17795;DHT22;9021;50.882;4.326;2022-09-17T18:00:04;15.10;99.90
17795;DHT22;9021;50.882;4.326;2022-09-17T18:02:30;15.10;99.90
17795;DHT22;9021;50.882;4.326;2022-09-17T18:04:56;15.00;99.90
17795;DHT22;9021;50.882;4.326;2022-09-17T18:07:21;15.10;99.90
17795;DHT22;9021;50.882;4.326;2022-09-17T18:09:47;14.90;99.90
17795;DHT22;9021;50.882;4.326;2022-09-17T18:12:13;14.90;99.90
17795;DHT22;9021;50.882;4.326;2022-09-17T18:14:38;14.80;99.90
17795;DHT22;9021;50.882;4.326;2022-09-17T18:17:04;14.80;99.90
17795;DHT22;9021;50.882;4.326;2022-09-17T18:19:29;14.80;99.90
17795;DHT22;9021;50.882;4.326;2022-09-17T18:21:55;14.80;99.90
17795;DHT22;9021;50.882;4.326;2022-09-17T18:24:21;14.70;99.90
17795;DHT22;9021;50.882;4.326;2022-09-17T18:26:46;14.70;99.90
17795;DHT22;9021;50.882;4.326;2022-09-17T18:29:12;14.80;99.90
17795;DHT22;9021;50.882;4.326;2022-09-17T18:31:39;14.80;99.90
17795;DHT22;9021;50.882;4.326;2022-09-17T18:34:15;14.80;99.90
17795;DHT22;9021;50.882;4.326;2022-09-17T18:36:42;14.90;99.90
17795;DHT22;9021;50.882;4.326;2022-09-17T18:39:12;14.80;99.90
17795;DHT22;9021;50.882;4.326;2022-09-17T18:41:39;14.80;99.90
17795;DHT22;9021;50.882;4.326;2022-09-17T18:44:06;14.90;99.90
17795;DHT22;9021;50.882;4.326;2022-09-17T18:46:32;14.80;99.90
17795;DHT22;9021;50.882;4.326;2022-09-17T18:48:58;14.60;99.90
17795;DHT22;9021;50.882;4.326;2022-09-17T18:51:26;14.70;99.90
17795;DHT22;9021;50.882;4.326;2022-09-17T18:53:52;14.60;99.90
17795;DHT22;9021;50.882;4.326;2022-09-17T18:58:46;14.50;99.90
17795;DHT22;9021;50.882;4.326;2022-09-17T19:01:12;14.60;99.90
17795;DHT22;9021;50.882;4.326;2022-09-17T19:03:37;14.40;99.90
17795;DHT22;9021;50.882;4.326;2022-09-17T19:06:05;14.50;99.90
17795;DHT22;9021;50.882;4.326;2022-09-17T19:08:31;14.50;99.90
17795;DHT22;9021;50.882;4.326;2022-09-17T19:10:57;14.50;99.90
17795;DHT22;9021;50.882;4.326;2022-09-17T19:13:23;14.40;99.90
17795;DHT22;9021;50.882;4.326;2022-09-17T19:15:49;14.40;99.90
17795;DHT22;9021;50.882;4.326;2022-09-17T19:18:15;14.40;99.90
17795;DHT22;9021;50.882;4.326;2022-09-17T19:20:40;14.40;99.90
17795;DHT22;9021;50.882;4.326;2022-09-17T19:23:06;14.40;99.90
17795;DHT22;9021;50.882;4.326;2022-09-17T19:25:35;14.30;99.90
17795;DHT22;9021;50.882;4.326;2022-09-17T19:28:02;14.40;99.90
17795;DHT22;9021;50.882;4.326;2022-09-17T19:30:28;14.40;99.90
17795;DHT22;9021;50.882;4.326;2022-09-17T19:32:55;14.40;99.90
17795;DHT22;9021;50.882;4.326;2022-09-17T19:35:23;14.40;99.90